Aviation Digital Data Service (ADDS)

Output produced by METARs form (1427 UTC 25 April 2015)
found at http://aviationweather.gov/adds/metars/
 
KJXN 251147Z 2512/2612 09009KT P6SM OVC060 
     FM251800 08009KT P6SM BKN090 
     FM260100 04006KT P6SM SKC